createdAt,value
2018-11-21T00:00:07.625Z,31.10
2018-11-21T00:01:07.865Z,30.20
2018-11-21T00:02:08.420Z,28.30
2018-11-21T00:03:08.518Z,29.30
2018-11-21T00:04:08.592Z,29.00
2018-11-21T00:05:08.689Z,27.70
2018-11-21T00:06:08.765Z,27.70
2018-11-21T00:07:08.858Z,28.10
2018-11-21T00:08:08.645Z,27.60
2018-11-21T00:09:09.220Z,29.00
2018-11-21T00:10:09.154Z,31.20
2018-11-21T00:11:09.476Z,29.00
2018-11-21T00:12:09.737Z,27.20
2018-11-21T00:13:10.276Z,27.00
2018-11-21T00:14:10.114Z,29.00
2018-11-21T00:15:10.387Z,30.20
2018-11-21T00:16:11.051Z,26.60
2018-11-21T00:17:11.317Z,28.70
2018-11-21T00:18:11.567Z,25.30
2018-11-21T00:19:11.980Z,28.10
2018-11-21T00:20:12.250Z,26.00
2018-11-21T00:21:12.709Z,28.70
2018-11-21T00:22:12.981Z,26.10
2018-11-21T00:23:13.241Z,27.80
2018-11-21T00:24:13.561Z,28.70
2018-11-21T00:25:13.826Z,26.30
2018-11-21T00:26:14.092Z,24.70
2018-11-21T00:27:14.350Z,26.60
2018-11-21T00:28:14.629Z,25.60
2018-11-21T00:29:14.942Z,28.80
2018-11-21T00:30:15.540Z,27.70
2018-11-21T00:31:15.330Z,29.30
2018-11-21T00:32:15.631Z,27.80
2018-11-21T00:33:15.874Z,25.70
2018-11-21T00:34:16.190Z,27.90
2018-11-21T00:35:16.553Z,27.80
2018-11-21T00:36:16.832Z,27.60
2018-11-21T00:37:17.110Z,29.90
2018-11-21T00:38:17.184Z,27.30
2018-11-21T00:39:17.464Z,28.90
2018-11-21T00:40:17.809Z,28.60
2018-11-21T00:41:18.269Z,29.50
2018-11-21T00:42:18.898Z,30.00
2018-11-21T00:43:18.987Z,28.60
2018-11-21T00:44:19.097Z,27.40
2018-11-21T00:45:19.206Z,28.80
2018-11-21T00:46:19.338Z,26.80
2018-11-21T00:47:19.456Z,25.80
2018-11-21T00:48:19.545Z,28.80
2018-11-21T00:49:19.683Z,30.00
2018-11-21T00:50:19.863Z,28.50
2018-11-21T00:51:20.024Z,28.80
2018-11-21T00:52:20.182Z,28.00
2018-11-21T00:53:20.313Z,27.70
2018-11-21T00:54:20.467Z,30.20
2018-11-21T00:55:20.622Z,25.00
2018-11-21T00:56:20.777Z,26.90
2018-11-21T00:57:20.923Z,28.90
2018-11-21T00:58:20.982Z,33.70
2018-11-21T00:59:21.110Z,28.40
2018-11-21T01:00:21.258Z,29.50
2018-11-21T01:01:21.438Z,29.40
2018-11-21T01:02:21.516Z,28.20
2018-11-21T01:03:21.663Z,29.60
2018-11-21T01:04:21.827Z,30.20
2018-11-21T01:05:21.916Z,31.70
2018-11-21T01:06:22.019Z,29.00
2018-11-21T01:07:22.116Z,26.50
2018-11-21T01:08:22.538Z,28.40
2018-11-21T01:09:22.620Z,32.00
2018-11-21T01:10:22.683Z,28.80
2018-11-21T01:11:22.750Z,29.80
2018-11-21T01:12:22.822Z,27.20
2018-11-21T01:13:22.911Z,28.70
2018-11-21T01:14:23.074Z,27.70
2018-11-21T01:15:23.213Z,29.80
2018-11-21T01:16:23.322Z,29.00
2018-11-21T01:17:23.407Z,30.80
2018-11-21T01:18:23.507Z,29.10
2018-11-21T01:19:23.577Z,27.80
2018-11-21T01:20:23.667Z,31.00
2018-11-21T01:21:23.741Z,31.60
2018-11-21T01:22:23.801Z,29.90
2018-11-21T01:24:23.863Z,29.60
2018-11-21T01:25:23.945Z,30.30
2018-11-21T01:26:23.940Z,30.60
2018-11-21T01:27:24.045Z,30.70
2018-11-21T01:28:24.128Z,32.30
2018-11-21T01:29:24.132Z,29.90
2018-11-21T01:30:23.969Z,29.70
2018-11-21T01:31:24.250Z,32.90
2018-11-21T01:32:24.529Z,29.30
2018-11-21T01:33:24.806Z,30.60
2018-11-21T01:34:25.108Z,28.40
2018-11-21T01:35:25.416Z,30.50
2018-11-21T01:36:25.687Z,29.50
2018-11-21T01:37:26.157Z,29.10
2018-11-21T01:38:26.485Z,31.30
2018-11-21T01:39:26.766Z,32.50
2018-11-21T01:40:27.199Z,31.60
2018-11-21T01:41:27.465Z,30.30
2018-11-21T01:42:27.813Z,30.50
2018-11-21T01:43:28.092Z,33.50
2018-11-21T01:44:28.499Z,31.00
2018-11-21T01:45:28.783Z,32.60
2018-11-21T01:46:29.138Z,29.00
2018-11-21T01:47:29.419Z,31.50
2018-11-21T01:48:29.714Z,35.70
2018-11-21T01:49:30.022Z,35.00
2018-11-21T01:50:30.295Z,29.70
2018-11-21T01:51:30.593Z,33.20
2018-11-21T01:52:30.861Z,31.50
2018-11-21T01:53:31.127Z,32.30
2018-11-21T01:54:31.412Z,31.30
2018-11-21T01:55:31.673Z,30.60
2018-11-21T01:56:32.008Z,36.80
2018-11-21T01:57:32.311Z,35.50
2018-11-21T01:58:32.606Z,33.40
2018-11-21T01:59:32.897Z,33.60
2018-11-21T02:00:33.490Z,35.60
2018-11-21T02:01:33.511Z,32.20
2018-11-21T02:02:33.612Z,35.70
2018-11-21T02:03:33.781Z,32.20
2018-11-21T02:04:34.092Z,37.40
2018-11-21T02:05:34.211Z,37.10
2018-11-21T02:06:34.344Z,34.10
2018-11-21T02:07:34.544Z,33.50
2018-11-21T02:08:34.686Z,35.80
2018-11-21T02:09:34.843Z,35.60
2018-11-21T02:10:35.004Z,33.10
2018-11-21T02:11:35.189Z,34.60
2018-11-21T02:12:35.369Z,32.90
2018-11-21T02:13:35.509Z,36.80
2018-11-21T02:14:35.657Z,34.60
2018-11-21T02:15:35.840Z,33.00
2018-11-21T02:16:36.026Z,35.40
2018-11-21T02:17:36.135Z,34.80
2018-11-21T02:18:36.200Z,36.90
2018-11-21T02:19:36.307Z,32.60
2018-11-21T02:20:36.407Z,34.40
2018-11-21T02:21:36.454Z,35.90
2018-11-21T02:22:36.519Z,33.70
2018-11-21T02:23:36.771Z,35.10
2018-11-21T02:24:37.109Z,32.30
2018-11-21T02:25:37.203Z,32.10
2018-11-21T02:26:37.347Z,34.80
2018-11-21T02:27:37.457Z,33.90
2018-11-21T02:28:37.553Z,36.20
2018-11-21T02:29:37.641Z,32.70
2018-11-21T02:31:37.730Z,34.10
2018-11-21T02:32:37.822Z,32.60
2018-11-21T02:34:37.898Z,34.90
2018-11-21T02:35:37.982Z,34.20
2018-11-21T02:36:38.075Z,36.00
2018-11-21T02:37:38.175Z,35.20
2018-11-21T02:38:38.241Z,36.00
2018-11-21T02:39:38.312Z,39.00
2018-11-21T02:40:38.497Z,35.80
2018-11-21T02:41:38.562Z,37.40
2018-11-21T02:42:38.664Z,36.40
2018-11-21T02:43:38.966Z,37.90
2018-11-21T02:44:39.060Z,37.20
2018-11-21T02:45:39.167Z,38.40
2018-11-21T02:46:39.250Z,37.20
2018-11-21T02:47:39.224Z,37.90
2018-11-21T02:48:39.519Z,39.70
2018-11-21T02:49:39.791Z,38.10
2018-11-21T02:50:40.123Z,39.70
2018-11-21T02:51:40.418Z,40.80
2018-11-21T02:52:40.685Z,39.60
2018-11-21T02:54:41.104Z,39.60
2018-11-21T02:55:41.408Z,37.90
2018-11-21T02:56:41.683Z,39.20
2018-11-21T02:57:41.855Z,39.20
2018-11-21T02:58:42.120Z,39.90
2018-11-21T02:59:42.446Z,40.40
2018-11-21T03:00:42.483Z,38.80
2018-11-21T03:01:42.700Z,40.50
2018-11-21T03:02:42.975Z,46.20
2018-11-21T03:03:43.238Z,40.20
2018-11-21T03:04:43.498Z,40.10
2018-11-21T03:05:43.779Z,39.90
2018-11-21T03:06:44.055Z,40.40
2018-11-21T03:07:44.392Z,42.00
2018-11-21T03:08:44.744Z,44.10
2018-11-21T03:09:45.039Z,40.80
2018-11-21T03:10:45.359Z,42.20
2018-11-21T03:11:45.623Z,42.30
2018-11-21T03:12:46.091Z,38.90
2018-11-21T03:13:46.847Z,43.20
2018-11-21T03:14:46.643Z,44.70
2018-11-21T03:15:46.942Z,43.80
2018-11-21T03:16:47.279Z,41.90
2018-11-21T03:17:47.590Z,41.60
2018-11-21T03:18:47.895Z,40.80
2018-11-21T03:19:48.326Z,37.10
2018-11-21T03:20:48.971Z,41.20
2018-11-21T03:21:49.092Z,41.10
2018-11-21T03:22:49.219Z,45.00
2018-11-21T03:23:49.329Z,42.30
2018-11-21T03:24:49.450Z,44.00
2018-11-21T03:25:49.548Z,41.50
2018-11-21T03:26:49.703Z,45.20
2018-11-21T03:27:50.006Z,41.20
2018-11-21T03:28:50.121Z,41.80
2018-11-21T03:29:50.393Z,45.90
2018-11-21T03:30:50.578Z,40.00
2018-11-21T03:31:50.717Z,38.70
2018-11-21T03:32:50.887Z,43.50
2018-11-21T03:33:57.675Z,42.50
2018-11-21T03:34:51.093Z,43.90
2018-11-21T03:35:51.154Z,40.00
2018-11-21T03:36:51.208Z,40.60
2018-11-21T03:37:51.516Z,41.80
2018-11-21T03:38:51.904Z,44.40
2018-11-21T03:39:51.950Z,43.40
2018-11-21T03:40:52.182Z,42.90
2018-11-21T03:41:52.267Z,44.50
2018-11-21T03:42:52.342Z,42.90
2018-11-21T03:43:52.408Z,46.90
2018-11-21T03:44:52.464Z,41.60
2018-11-21T03:45:52.578Z,44.20
2018-11-21T03:46:52.665Z,44.70
2018-11-21T03:47:52.749Z,47.40
2018-11-21T03:48:52.811Z,43.90
2018-11-21T03:49:52.867Z,42.10
2018-11-21T03:50:52.960Z,40.80
2018-11-21T03:51:53.037Z,45.90
2018-11-21T03:52:53.139Z,42.90
2018-11-21T03:53:53.223Z,44.00
2018-11-21T03:54:53.336Z,52.30
2018-11-21T03:55:53.422Z,49.70
2018-11-21T03:56:53.547Z,47.50
2018-11-21T03:57:53.610Z,45.20
2018-11-21T03:58:53.731Z,48.10
2018-11-21T03:59:53.812Z,45.10
2018-11-21T04:00:53.893Z,43.60
2018-11-21T04:01:53.903Z,45.60
2018-11-21T04:02:53.921Z,45.80
2018-11-21T04:03:53.929Z,43.20
2018-11-21T04:04:53.996Z,43.20
2018-11-21T04:05:54.301Z,45.90
2018-11-21T04:06:54.570Z,46.90
2018-11-21T04:07:54.892Z,43.80
2018-11-21T04:08:55.249Z,42.20
2018-11-21T04:09:55.630Z,44.20
2018-11-21T04:10:55.901Z,41.30
2018-11-21T04:11:56.302Z,40.80
2018-11-21T04:12:56.794Z,42.00
2018-11-21T04:13:57.072Z,43.30
2018-11-21T04:14:57.352Z,40.00
2018-11-21T04:15:57.647Z,41.00
2018-11-21T04:16:57.934Z,43.40
2018-11-21T04:17:58.214Z,42.90
2018-11-21T04:18:58.499Z,42.40
2018-11-21T04:19:58.749Z,44.00
2018-11-21T04:20:59.284Z,41.90
2018-11-21T04:21:59.218Z,44.50
2018-11-21T04:22:59.805Z,43.90
2018-11-21T04:23:59.824Z,42.80
2018-11-21T04:24:59.627Z,43.20
2018-11-21T04:26:00.046Z,45.00
2018-11-21T04:27:00.361Z,43.10
2018-11-21T04:28:00.636Z,45.90
2018-11-21T04:29:00.894Z,47.20
2018-11-21T04:30:01.218Z,43.50
2018-11-21T04:31:01.339Z,45.00
2018-11-21T04:33:01.806Z,47.20
2018-11-21T04:34:02.052Z,45.20
2018-11-21T04:35:01.997Z,45.10
2018-11-21T04:36:02.476Z,42.30
2018-11-21T04:37:02.350Z,43.70
2018-11-21T04:38:02.640Z,44.00
2018-11-21T04:39:03.018Z,45.10
2018-11-21T04:40:03.525Z,43.70
2018-11-21T04:41:03.570Z,47.90
2018-11-21T04:42:03.708Z,43.20
2018-11-21T04:43:03.843Z,47.20
2018-11-21T04:44:03.989Z,45.00
2018-11-21T04:45:04.191Z,47.70
2018-11-21T04:46:04.219Z,46.20
2018-11-21T04:47:04.503Z,43.40
2018-11-21T04:48:04.660Z,47.50
2018-11-21T04:49:04.823Z,45.90
2018-11-21T04:50:04.988Z,43.50
2018-11-21T04:51:05.210Z,47.30
2018-11-21T04:52:05.339Z,48.40
2018-11-21T04:53:05.478Z,43.40
2018-11-21T04:54:05.677Z,45.00
2018-11-21T04:55:05.816Z,44.30
2018-11-21T04:56:06.186Z,40.10
2018-11-21T04:57:06.312Z,45.00
2018-11-21T04:58:06.472Z,44.30
2018-11-21T04:59:06.550Z,46.60
2018-11-21T05:00:06.737Z,41.70
2018-11-21T05:01:06.899Z,43.60
2018-11-21T05:02:07.011Z,44.00
2018-11-21T05:03:07.168Z,40.40
2018-11-21T05:04:07.266Z,42.10
2018-11-21T05:05:07.373Z,41.40
2018-11-21T05:06:07.586Z,39.90
2018-11-21T05:07:07.699Z,40.20
2018-11-21T05:08:07.820Z,44.60
2018-11-21T05:09:07.913Z,41.40
2018-11-21T05:10:08.033Z,40.10
2018-11-21T05:11:08.154Z,44.20
2018-11-21T05:12:08.252Z,39.50
2018-11-21T05:13:08.356Z,39.50
2018-11-21T05:14:08.128Z,38.40
2018-11-21T05:15:08.735Z,38.30
2018-11-21T05:16:08.757Z,42.50
2018-11-21T05:17:08.697Z,44.30
2018-11-21T05:18:09.434Z,42.40
2018-11-21T05:19:09.632Z,41.40
2018-11-21T05:20:09.536Z,43.30
2018-11-21T05:21:09.870Z,38.50
2018-11-21T05:22:10.175Z,42.30
2018-11-21T05:23:10.462Z,40.00
2018-11-21T05:24:11.095Z,41.50
2018-11-21T05:25:10.907Z,39.90
2018-11-21T05:26:11.160Z,39.40
2018-11-21T05:27:11.453Z,40.90
2018-11-21T05:28:11.759Z,38.80
2018-11-21T05:29:12.111Z,38.40
2018-11-21T05:30:12.392Z,43.40
2018-11-21T05:31:12.889Z,38.60
2018-11-21T05:32:12.738Z,40.50
2018-11-21T05:33:13.023Z,42.70
2018-11-21T05:34:13.280Z,41.70
2018-11-21T05:35:13.665Z,39.50
2018-11-21T05:36:13.913Z,41.40
2018-11-21T05:37:14.207Z,38.80
2018-11-21T05:38:14.563Z,40.10
2018-11-21T05:39:14.852Z,37.80
2018-11-21T05:40:15.390Z,39.40
2018-11-21T05:42:15.185Z,37.30
2018-11-21T05:43:15.464Z,38.20
2018-11-21T05:44:15.747Z,40.40
2018-11-21T05:45:16.321Z,39.90
2018-11-21T05:46:16.116Z,35.60
2018-11-21T05:47:16.436Z,36.20
2018-11-21T05:48:16.731Z,36.90
2018-11-21T05:49:17.021Z,37.60
2018-11-21T05:50:17.646Z,35.70
2018-11-21T05:51:17.675Z,38.90
2018-11-21T05:52:17.442Z,35.30
2018-11-21T05:53:18.014Z,37.20
2018-11-21T05:54:17.873Z,35.90
2018-11-21T05:55:18.436Z,31.60
2018-11-21T05:56:18.585Z,34.00
2018-11-21T05:57:18.783Z,37.10
2018-11-21T05:58:19.005Z,36.40
2018-11-21T05:59:19.181Z,33.30
2018-11-21T06:00:19.327Z,33.90
2018-11-21T06:01:19.432Z,36.40
2018-11-21T06:02:19.688Z,37.20
2018-11-21T06:03:19.756Z,32.60
2018-11-21T06:04:19.936Z,33.10
2018-11-21T06:05:20.181Z,35.50
2018-11-21T06:06:20.319Z,34.70
2018-11-21T06:07:20.410Z,36.60
2018-11-21T06:08:20.561Z,36.50
2018-11-21T06:09:20.728Z,33.70
2018-11-21T06:10:20.854Z,35.40
2018-11-21T06:11:20.960Z,32.00
2018-11-21T06:12:21.102Z,35.10
2018-11-21T06:13:21.159Z,34.30
2018-11-21T06:14:21.251Z,32.70
2018-11-21T06:15:21.305Z,36.60
2018-11-21T06:16:21.379Z,37.40
2018-11-21T06:17:21.492Z,33.90
2018-11-21T06:18:21.507Z,34.70
2018-11-21T06:19:21.653Z,31.30
2018-11-21T06:20:21.720Z,32.10
2018-11-21T06:21:21.822Z,37.20
2018-11-21T06:22:21.923Z,34.50
2018-11-21T06:23:22.032Z,33.60
2018-11-21T06:24:22.166Z,34.30
2018-11-21T06:25:22.234Z,34.00
2018-11-21T06:26:22.321Z,33.00
2018-11-21T06:27:22.392Z,34.30
2018-11-21T06:28:22.465Z,34.30
2018-11-21T06:29:22.562Z,35.10
2018-11-21T06:30:25.378Z,34.20
2018-11-21T06:31:22.953Z,35.20
2018-11-21T06:32:23.025Z,32.40
2018-11-21T06:33:23.101Z,33.70
2018-11-21T06:34:23.178Z,32.60
2018-11-21T06:35:23.277Z,31.50
2018-11-21T06:36:23.418Z,33.30
2018-11-21T06:37:23.476Z,31.20
2018-11-21T06:38:23.671Z,31.30
2018-11-21T06:39:23.757Z,31.70
2018-11-21T06:40:23.835Z,31.50
2018-11-21T06:41:23.877Z,32.00
2018-11-21T06:42:23.890Z,30.70
2018-11-21T06:43:23.972Z,29.60
2018-11-21T06:44:24.065Z,29.90
2018-11-21T06:45:24.165Z,32.70
2018-11-21T06:46:24.661Z,28.40
2018-11-21T06:47:24.745Z,32.10
2018-11-21T06:48:24.478Z,29.00
2018-11-21T06:49:24.742Z,28.60
2018-11-21T06:50:25.025Z,30.50
2018-11-21T06:51:25.301Z,31.70
2018-11-21T06:52:25.762Z,30.60
2018-11-21T06:53:26.025Z,29.30
2018-11-21T06:54:26.427Z,30.30
2018-11-21T06:55:26.706Z,30.10
2018-11-21T06:56:26.968Z,28.90
2018-11-21T06:57:27.376Z,30.00
2018-11-21T06:58:27.651Z,30.50
2018-11-21T06:59:27.949Z,28.60
2018-11-21T07:00:28.235Z,30.30
2018-11-21T07:01:28.498Z,28.90
2018-11-21T07:02:29.004Z,28.50
2018-11-21T07:03:29.261Z,27.90
2018-11-21T07:04:29.531Z,29.30
2018-11-21T07:05:29.896Z,29.10
2018-11-21T07:06:30.213Z,29.50
2018-11-21T07:07:30.718Z,29.70
2018-11-21T07:08:30.710Z,26.70
2018-11-21T07:09:30.996Z,27.80
2018-11-21T07:10:31.267Z,30.60
2018-11-21T07:11:31.555Z,27.40
2018-11-21T07:12:32.010Z,29.10
2018-11-21T07:13:32.303Z,27.50
2018-11-21T07:14:32.588Z,25.90
2018-11-21T07:15:33.310Z,27.80
2018-11-21T07:16:33.390Z,26.20
2018-11-21T07:17:33.484Z,27.60
2018-11-21T07:18:33.701Z,29.80
2018-11-21T07:19:33.796Z,28.10
2018-11-21T07:20:33.922Z,30.00
2018-11-21T07:21:34.087Z,30.50
2018-11-21T07:22:34.204Z,28.20
2018-11-21T07:23:34.578Z,26.90
2018-11-21T07:24:34.752Z,31.10
2018-11-21T07:25:34.920Z,27.80
2018-11-21T07:26:35.090Z,30.10
2018-11-21T07:27:35.315Z,29.60
2018-11-21T07:28:35.451Z,26.70
2018-11-21T07:29:35.667Z,28.40
2018-11-21T07:30:35.794Z,30.40
2018-11-21T07:31:35.890Z,30.00
2018-11-21T07:32:36.041Z,32.40
2018-11-21T07:33:36.124Z,28.40
2018-11-21T07:34:36.226Z,32.40
2018-11-21T07:35:36.328Z,29.00
2018-11-21T07:36:36.373Z,29.00
2018-11-21T07:37:36.436Z,29.90
2018-11-21T07:38:36.654Z,28.70
2018-11-21T07:39:36.742Z,29.20
2018-11-21T07:40:36.876Z,27.80
2018-11-21T07:41:37.005Z,29.80
2018-11-21T07:42:37.131Z,30.70
2018-11-21T07:43:37.236Z,31.80
2018-11-21T07:44:37.323Z,29.90
2018-11-21T07:45:37.426Z,30.10
2018-11-21T07:46:37.549Z,31.40
2018-11-21T07:47:37.655Z,30.70
2018-11-21T07:48:37.659Z,30.00
2018-11-21T07:49:37.748Z,27.40
2018-11-21T07:50:37.817Z,28.90
2018-11-21T07:51:37.920Z,28.40
2018-11-21T07:52:37.983Z,28.40
2018-11-21T07:53:38.285Z,29.30
2018-11-21T07:54:38.383Z,30.80
2018-11-21T07:55:38.719Z,28.60
2018-11-21T07:56:38.887Z,30.90
2018-11-21T07:57:39.042Z,30.70
2018-11-21T07:58:39.253Z,30.20
2018-11-21T07:59:39.637Z,27.80
2018-11-21T08:00:39.732Z,27.70
2018-11-21T08:01:40.183Z,25.90
2018-11-21T08:02:40.221Z,26.70
2018-11-21T08:03:40.708Z,28.00
2018-11-21T08:04:40.890Z,27.90
2018-11-21T08:05:44.270Z,27.80
2018-11-21T08:06:41.305Z,27.50
2018-11-21T08:07:41.585Z,27.20
2018-11-21T08:08:41.712Z,28.90
2018-11-21T08:09:42.353Z,27.60
2018-11-21T08:10:42.255Z,25.80
2018-11-21T08:11:42.582Z,26.40
2018-11-21T08:12:42.844Z,27.90
2018-11-21T08:13:43.256Z,26.70
2018-11-21T08:14:43.710Z,27.70
2018-11-21T08:15:44.125Z,25.00
2018-11-21T08:16:44.567Z,25.70
2018-11-21T08:17:45.006Z,27.00
2018-11-21T08:18:45.013Z,28.50
2018-11-21T08:29:46.337Z,25.60
2018-11-21T08:30:46.863Z,25.80
2018-11-21T08:40:47.802Z,28.10
2018-11-21T08:41:48.331Z,25.70
2018-11-21T08:42:48.303Z,26.80
2018-11-21T08:43:48.298Z,25.00
2018-11-21T08:44:48.897Z,27.30
2018-11-21T08:45:49.007Z,25.70
2018-11-21T08:46:49.170Z,25.80
2018-11-21T08:47:49.399Z,25.20
2018-11-21T08:48:49.565Z,25.50
2018-11-21T08:49:49.707Z,22.60
2018-11-21T08:50:49.829Z,25.00
2018-11-21T08:51:50.083Z,22.50
2018-11-21T08:52:50.242Z,21.80
2018-11-21T08:53:50.414Z,21.80
2018-11-21T08:54:50.527Z,23.50
2018-11-21T08:55:50.643Z,21.70
2018-11-21T08:56:50.768Z,22.50
2018-11-21T08:57:50.873Z,22.90
2018-11-21T08:58:51.000Z,22.80
2018-11-21T08:59:51.025Z,24.80
2018-11-21T09:00:51.082Z,23.50
2018-11-21T09:01:51.139Z,25.00
2018-11-21T09:02:51.227Z,25.70
2018-11-21T09:03:51.424Z,24.10
2018-11-21T09:04:51.496Z,23.70
2018-11-21T09:05:51.619Z,24.60
2018-11-21T09:06:51.648Z,23.30
2018-11-21T09:07:51.734Z,21.30
2018-11-21T09:08:51.863Z,22.60
2018-11-21T09:09:51.973Z,20.90
2018-11-21T09:10:52.708Z,20.90
2018-11-21T09:11:52.143Z,21.50
2018-11-21T09:12:52.233Z,21.50
2018-11-21T09:14:52.345Z,23.60
2018-11-21T09:15:53.424Z,22.20
2018-11-21T09:16:52.461Z,21.80
2018-11-21T09:17:52.525Z,21.50
2018-11-21T09:18:52.583Z,20.90
2018-11-21T09:19:52.650Z,20.80
2018-11-21T09:20:52.711Z,21.50
2018-11-21T09:21:52.756Z,23.20
2018-11-21T09:22:52.822Z,21.30
2018-11-21T09:23:52.882Z,23.40
2018-11-21T09:24:52.966Z,22.20
2018-11-21T09:25:53.032Z,24.60
2018-11-21T09:26:53.110Z,22.30
2018-11-21T09:27:53.224Z,23.70
2018-11-21T09:28:53.314Z,22.50
2018-11-21T09:29:53.541Z,21.30
2018-11-21T09:30:53.615Z,22.00
2018-11-21T09:31:53.701Z,23.30
2018-11-21T09:32:53.804Z,22.00
2018-11-21T09:33:53.868Z,20.60
2018-11-21T09:34:53.877Z,21.00
2018-11-21T09:35:53.850Z,21.60
2018-11-21T09:36:54.163Z,20.50
2018-11-21T09:37:54.483Z,22.30
2018-11-21T09:38:54.745Z,20.20
2018-11-21T09:39:55.068Z,22.10
2018-11-21T09:40:55.331Z,22.50
2018-11-21T09:41:55.589Z,21.20
2018-11-21T09:42:55.872Z,20.70
2018-11-21T09:43:56.158Z,21.50
2018-11-21T09:44:56.430Z,23.10
2018-11-21T09:45:56.839Z,22.60
2018-11-21T09:46:57.110Z,21.20
2018-11-21T09:47:57.367Z,19.80
2018-11-21T09:48:57.629Z,18.90
2018-11-21T09:49:57.898Z,20.60
2018-11-21T09:50:58.288Z,21.40
2018-11-21T09:51:58.528Z,21.40
2018-11-21T09:52:58.796Z,22.30
2018-11-21T09:53:59.044Z,22.40
2018-11-21T09:54:59.538Z,19.60
2018-11-21T09:55:59.785Z,21.80
2018-11-21T09:57:00.134Z,20.70
2018-11-21T09:58:00.408Z,21.80
2018-11-21T09:59:00.680Z,22.50
2018-11-21T10:00:00.995Z,20.20
2018-11-21T10:01:01.450Z,18.10
2018-11-21T10:02:01.782Z,17.20
2018-11-21T10:03:01.948Z,19.90
2018-11-21T10:04:02.187Z,21.00
2018-11-21T10:05:02.556Z,18.10
2018-11-21T10:06:03.152Z,19.90
2018-11-21T10:07:03.520Z,19.30
2018-11-21T10:08:03.642Z,17.30
2018-11-21T10:09:03.869Z,21.10
2018-11-21T10:10:04.310Z,21.20
2018-11-21T10:11:04.429Z,20.60
2018-11-21T10:12:04.506Z,18.80
2018-11-21T10:13:04.588Z,15.60
2018-11-21T10:14:04.706Z,17.00
2018-11-21T10:16:04.812Z,17.50
2018-11-21T10:17:04.931Z,17.30
2018-11-21T10:18:05.025Z,16.80
2018-11-21T10:19:05.190Z,17.90
2018-11-21T10:20:05.323Z,16.80
2018-11-21T10:21:05.461Z,15.10
2018-11-21T10:22:05.673Z,15.70
2018-11-21T10:23:05.776Z,17.70
2018-11-21T10:24:05.906Z,17.50
2018-11-21T10:25:06.015Z,18.80
2018-11-21T10:26:06.102Z,15.90
2018-11-21T10:27:06.515Z,15.60
2018-11-21T10:28:06.600Z,17.70
2018-11-21T10:29:06.767Z,16.60
2018-11-21T10:30:06.943Z,15.80
2018-11-21T10:31:07.075Z,16.60
2018-11-21T10:32:07.150Z,15.00
2018-11-21T10:33:07.230Z,14.90
2018-11-21T10:34:07.349Z,15.20
2018-11-21T10:35:07.489Z,16.50
2018-11-21T10:36:07.563Z,16.80
2018-11-21T10:37:07.627Z,16.70
2018-11-21T10:38:07.645Z,17.70
2018-11-21T10:39:07.710Z,19.10
2018-11-21T10:40:08.025Z,16.10
2018-11-21T10:41:08.073Z,16.70
2018-11-21T10:42:08.205Z,14.40
2018-11-21T10:43:07.960Z,16.30
2018-11-21T10:44:08.900Z,14.30
2018-11-21T10:45:09.539Z,12.80
2018-11-21T10:46:09.327Z,13.00
2018-11-21T10:47:09.730Z,15.00
2018-11-21T10:48:09.974Z,16.50
2018-11-21T10:49:10.355Z,16.20
2018-11-21T10:50:10.780Z,14.20
2018-11-21T10:51:11.064Z,13.90
2018-11-21T10:53:11.528Z,13.40
2018-11-21T10:54:11.438Z,13.70
2018-11-21T10:55:11.746Z,13.90
2018-11-21T10:56:12.012Z,12.10
2018-11-21T10:57:12.331Z,12.20
2018-11-21T10:58:12.595Z,12.40
2018-11-21T10:59:12.891Z,12.90
2018-11-21T11:00:13.327Z,12.20
2018-11-21T11:01:13.270Z,12.80
2018-11-21T11:02:13.580Z,13.20
2018-11-21T11:03:14.079Z,13.80
2018-11-21T11:04:14.219Z,14.30
2018-11-21T11:05:14.741Z,13.20
2018-11-21T11:06:14.672Z,13.40
2018-11-21T11:07:14.825Z,13.40
2018-11-21T11:08:15.252Z,14.30
2018-11-21T11:09:15.652Z,14.70
2018-11-21T11:10:16.105Z,14.90
2018-11-21T11:11:16.007Z,17.90
2018-11-21T11:12:16.732Z,18.80
2018-11-21T11:13:16.741Z,19.30
2018-11-21T11:14:16.654Z,21.50
2018-11-21T11:15:16.800Z,21.10
2018-11-21T11:16:16.724Z,19.90
2018-11-21T11:17:17.072Z,17.30
2018-11-21T11:18:17.484Z,17.60
2018-11-21T11:19:17.968Z,19.60
2018-11-21T11:20:18.303Z,21.10
2018-11-21T11:21:18.992Z,21.80
2018-11-21T11:23:19.308Z,19.80
2018-11-21T11:24:19.613Z,21.70
2018-11-21T11:25:19.907Z,23.20
2018-11-21T11:26:20.370Z,20.90
2018-11-21T11:27:20.641Z,19.50
2018-11-21T11:28:20.888Z,18.80
2018-11-21T11:29:21.079Z,19.40
2018-11-21T11:30:21.139Z,17.10
2018-11-21T11:31:21.579Z,19.90
2018-11-21T11:32:21.849Z,19.40
2018-11-21T11:33:22.236Z,20.50
2018-11-21T11:34:22.273Z,18.80
2018-11-21T11:35:22.463Z,21.20
2018-11-21T11:36:22.838Z,22.80
2018-11-21T11:37:23.079Z,21.90
2018-11-21T11:38:23.096Z,22.60
2018-11-21T11:39:23.425Z,23.30
2018-11-21T11:40:23.698Z,19.90
2018-11-21T11:41:23.877Z,20.00
2018-11-21T11:42:24.005Z,23.60
2018-11-21T11:43:23.981Z,23.20
2018-11-21T11:44:24.072Z,21.30
2018-11-21T11:45:24.134Z,22.80
2018-11-21T11:46:24.055Z,20.70
2018-11-21T11:47:24.129Z,21.70
2018-11-21T11:48:24.517Z,19.90
2018-11-21T11:49:24.929Z,22.90
2018-11-21T11:50:25.505Z,22.30
2018-11-21T11:51:25.693Z,23.70
2018-11-21T11:52:25.851Z,18.90
2018-11-21T11:53:26.186Z,23.00
2018-11-21T11:54:26.636Z,17.10
2018-11-21T11:55:27.026Z,15.90
2018-11-21T11:56:27.431Z,14.80
2018-11-21T11:57:27.777Z,14.90
2018-11-21T11:58:28.155Z,14.10
2018-11-21T11:59:28.465Z,14.90
2018-11-21T12:00:28.535Z,15.50
2018-11-21T12:01:28.652Z,16.60
2018-11-21T12:02:29.078Z,13.70
2018-11-21T12:03:29.498Z,13.50
2018-11-21T12:04:30.098Z,14.20
2018-11-21T12:05:30.002Z,15.40
2018-11-21T12:06:30.336Z,13.80
2018-11-21T12:07:30.510Z,14.90
2018-11-21T12:08:30.930Z,14.40
2018-11-21T12:09:31.397Z,12.50
2018-11-21T12:10:31.802Z,13.00
2018-11-21T12:11:31.911Z,13.00
2018-11-21T12:12:32.882Z,13.00
2018-11-21T12:13:32.522Z,13.60
2018-11-21T12:14:33.054Z,12.50
2018-11-21T12:15:33.658Z,12.30
2018-11-21T12:16:33.872Z,12.70
2018-11-21T12:17:34.063Z,13.80
2018-11-21T12:18:34.432Z,12.50
2018-11-21T12:19:34.741Z,12.90
2018-11-21T12:20:35.047Z,12.80
2018-11-21T12:22:35.423Z,12.80
2018-11-21T12:23:35.671Z,13.60
2018-11-21T12:24:36.032Z,15.00
2018-11-21T12:25:36.244Z,13.10
2018-11-21T12:26:36.465Z,12.10
2018-11-21T12:27:36.822Z,12.80
2018-11-21T12:28:36.909Z,13.40
2018-11-21T12:29:37.141Z,12.60
2018-11-21T12:30:37.014Z,14.30
2018-11-21T12:31:37.821Z,12.50
2018-11-21T12:32:39.312Z,13.80
2018-11-21T12:33:38.065Z,12.10
2018-11-21T12:35:38.290Z,12.10
2018-11-21T12:36:38.316Z,13.20
2018-11-21T12:37:38.473Z,13.30
2018-11-21T12:38:38.854Z,13.10
2018-11-21T12:39:38.850Z,13.00
2018-11-21T12:40:38.998Z,12.60
2018-11-21T12:41:39.010Z,13.10
2018-11-21T12:42:39.160Z,13.50
2018-11-21T12:43:39.155Z,12.60
2018-11-21T12:44:39.583Z,12.50
2018-11-21T12:45:39.762Z,12.40
2018-11-21T12:46:39.733Z,13.40
2018-11-21T12:47:39.816Z,12.90
2018-11-21T12:48:40.243Z,11.50
2018-11-21T12:49:40.693Z,12.30
2018-11-21T12:50:40.764Z,11.90
2018-11-21T12:51:40.793Z,12.20
2018-11-21T12:52:41.106Z,12.00
2018-11-21T12:53:41.367Z,14.60
2018-11-21T12:54:41.485Z,11.80
2018-11-21T12:55:41.520Z,12.20
2018-11-21T12:56:41.715Z,13.00
2018-11-21T12:57:42.113Z,12.90
2018-11-21T12:58:42.436Z,11.50
2018-11-21T12:59:42.908Z,11.10
2018-11-21T13:00:43.372Z,12.10
2018-11-21T13:01:43.592Z,10.80
2018-11-21T13:02:43.762Z,11.60
2018-11-21T13:03:43.926Z,11.00
2018-11-21T13:04:44.404Z,11.80
2018-11-21T13:05:44.606Z,11.30
2018-11-21T13:06:45.018Z,11.80
2018-11-21T13:07:45.512Z,10.90
2018-11-21T13:08:45.547Z,12.70
2018-11-21T13:09:45.961Z,11.90
2018-11-21T13:10:46.160Z,12.20
2018-11-21T13:11:46.526Z,11.40
2018-11-21T13:12:46.988Z,11.80
2018-11-21T13:13:46.864Z,12.20
2018-11-21T13:14:47.020Z,12.00
2018-11-21T13:15:47.618Z,12.60
2018-11-21T13:16:47.584Z,12.50
2018-11-21T13:17:47.911Z,13.70
2018-11-21T13:18:48.085Z,12.70
2018-11-21T13:19:48.168Z,13.00
2018-11-21T13:20:48.571Z,12.30
2018-11-21T13:21:48.871Z,13.30
2018-11-21T13:23:48.921Z,12.50
2018-11-21T13:24:49.431Z,12.70
2018-11-21T13:25:49.928Z,12.40
2018-11-21T13:26:50.215Z,13.60